sensor_id;sensor_type;location;lat;lon;timestamp;temperature;humidity
37432;DHT22;23292;51.300;6.252;2022-12-15T00:01:58;-7.00;99.90
37432;DHT22;23292;51.300;6.252;2022-12-15T00:04:43;-7.00;99.90
37432;DHT22;23292;51.300;6.252;2022-12-15T00:07:29;-7.10;99.90
37432;DHT22;23292;51.300;6.252;2022-12-15T00:10:14;-7.10;99.90
37432;DHT22;23292;51.300;6.252;2022-12-15T00:12:59;-7.10;99.90
37432;DHT22;23292;51.300;6.252;2022-12-15T00:15:46;-7.10;99.90
37432;DHT22;23292;51.300;6.252;2022-12-15T00:18:31;-7.10;99.90
37432;DHT22;23292;51.300;6.252;2022-12-15T00:21:17;-7.00;99.90
37432;DHT22;23292;51.300;6.252;2022-12-15T00:24:02;-7.10;99.90
37432;DHT22;23292;51.300;6.252;2022-12-15T00:26:47;-7.00;99.90
37432;DHT22;23292;51.300;6.252;2022-12-15T00:29:33;-7.00;99.90
37432;DHT22;23292;51.300;6.252;2022-12-15T00:32:18;-7.00;99.90
37432;DHT22;23292;51.300;6.252;2022-12-15T00:35:04;-7.10;99.90
37432;DHT22;23292;51.300;6.252;2022-12-15T00:37:49;-7.20;99.90
37432;DHT22;23292;51.300;6.252;2022-12-15T00:40:34;-7.20;99.90
37432;DHT22;23292;51.300;6.252;2022-12-15T00:43:01;-7.30;99.90
37432;DHT22;23292;51.300;6.252;2022-12-15T00:45:27;-7.30;99.90
37432;DHT22;23292;51.300;6.252;2022-12-15T00:48:14;-7.20;99.90
37432;DHT22;23292;51.300;6.252;2022-12-15T00:50:43;-7.20;99.90
37432;DHT22;23292;51.300;6.252;2022-12-15T00:53:20;-7.10;99.90
37432;DHT22;23292;51.300;6.252;2022-12-15T00:56:07;-7.10;99.90
37432;DHT22;23292;51.300;6.252;2022-12-15T00:58:53;-7.10;99.90
37432;DHT22;23292;51.300;6.252;2022-12-15T01:01:39;-7.10;99.90
37432;DHT22;23292;51.300;6.252;2022-12-15T01:04:25;-7.10;99.90
37432;DHT22;23292;51.300;6.252;2022-12-15T01:07:10;-7.20;99.90
37432;DHT22;23292;51.300;6.252;2022-12-15T01:09:56;-7.10;99.90
37432;DHT22;23292;51.300;6.252;2022-12-15T01:12:41;-7.10;99.90
37432;DHT22;23292;51.300;6.252;2022-12-15T01:15:26;-7.00;99.90
37432;DHT22;23292;51.300;6.252;2022-12-15T01:18:12;-7.00;99.90
37432;DHT22;23292;51.300;6.252;2022-12-15T01:20:59;-6.90;99.90
37432;DHT22;23292;51.300;6.252;2022-12-15T01:23:26;-7.00;99.90
37432;DHT22;23292;51.300;6.252;2022-12-15T01:25:54;-7.10;99.90
37432;DHT22;23292;51.300;6.252;2022-12-15T01:28:21;-7.10;99.90
37432;DHT22;23292;51.300;6.252;2022-12-15T01:30:48;-7.10;99.90
37432;DHT22;23292;51.300;6.252;2022-12-15T01:33:16;-7.10;99.90
37432;DHT22;23292;51.300;6.252;2022-12-15T01:35:43;-7.10;99.90
37432;DHT22;23292;51.300;6.252;2022-12-15T01:38:10;-7.10;99.90
37432;DHT22;23292;51.300;6.252;2022-12-15T01:40:37;-7.10;99.90
37432;DHT22;23292;51.300;6.252;2022-12-15T01:43:21;-7.10;99.90
37432;DHT22;23292;51.300;6.252;2022-12-15T01:48:46;-7.20;99.90
37432;DHT22;23292;51.300;6.252;2022-12-15T01:51:33;-7.20;99.90
37432;DHT22;23292;51.300;6.252;2022-12-15T01:54:06;-7.10;99.90
37432;DHT22;23292;51.300;6.252;2022-12-15T01:56:36;-7.10;99.90
37432;DHT22;23292;51.300;6.252;2022-12-15T01:59:08;-7.00;99.90
37432;DHT22;23292;51.300;6.252;2022-12-15T02:01:36;-6.90;99.90
37432;DHT22;23292;51.300;6.252;2022-12-15T02:04:03;-6.90;99.90
37432;DHT22;23292;51.300;6.252;2022-12-15T02:06:30;-6.90;99.90
37432;DHT22;23292;51.300;6.252;2022-12-15T02:08:58;-6.90;99.90
37432;DHT22;23292;51.300;6.252;2022-12-15T02:17:05;-6.90;99.90
37432;DHT22;23292;51.300;6.252;2022-12-15T02:20:45;-6.80;99.90
37432;DHT22;23292;51.300;6.252;2022-12-15T02:23:18;-6.80;99.90
37432;DHT22;23292;51.300;6.252;2022-12-15T02:32:08;-6.90;99.90
37432;DHT22;23292;51.300;6.252;2022-12-15T02:34:48;-6.90;99.90
37432;DHT22;23292;51.300;6.252;2022-12-15T02:37:38;-7.00;99.90
37432;DHT22;23292;51.300;6.252;2022-12-15T02:40:08;-7.00;99.90
37432;DHT22;23292;51.300;6.252;2022-12-15T02:42:40;-7.10;99.90
37432;DHT22;23292;51.300;6.252;2022-12-15T02:45:08;-7.10;99.90
37432;DHT22;23292;51.300;6.252;2022-12-15T02:47:44;-7.00;99.90
37432;DHT22;23292;51.300;6.252;2022-12-15T02:58:01;-7.00;99.90
37432;DHT22;23292;51.300;6.252;2022-12-15T03:00:36;-7.10;99.90
37432;DHT22;23292;51.300;6.252;2022-12-15T03:03:04;-7.10;99.90
37432;DHT22;23292;51.300;6.252;2022-12-15T03:05:31;-7.10;99.90
37432;DHT22;23292;51.300;6.252;2022-12-15T03:07:58;-7.10;99.90
37432;DHT22;23292;51.300;6.252;2022-12-15T03:10:24;-7.20;99.90
37432;DHT22;23292;51.300;6.252;2022-12-15T03:12:51;-7.20;99.90
37432;DHT22;23292;51.300;6.252;2022-12-15T03:15:20;-7.20;99.90
37432;DHT22;23292;51.300;6.252;2022-12-15T03:17:47;-7.10;99.90
37432;DHT22;23292;51.300;6.252;2022-12-15T03:20:13;-7.20;99.90
37432;DHT22;23292;51.300;6.252;2022-12-15T03:22:41;-7.20;99.90
37432;DHT22;23292;51.300;6.252;2022-12-15T03:25:08;-7.20;99.90
37432;DHT22;23292;51.300;6.252;2022-12-15T03:27:34;-7.00;99.90
37432;DHT22;23292;51.300;6.252;2022-12-15T03:30:01;-6.90;99.90
37432;DHT22;23292;51.300;6.252;2022-12-15T03:32:29;-7.00;99.90
37432;DHT22;23292;51.300;6.252;2022-12-15T03:34:55;-7.00;99.90
37432;DHT22;23292;51.300;6.252;2022-12-15T03:37:22;-7.00;99.90
37432;DHT22;23292;51.300;6.252;2022-12-15T03:39:49;-6.90;99.90
37432;DHT22;23292;51.300;6.252;2022-12-15T03:42:16;-7.00;99.90
37432;DHT22;23292;51.300;6.252;2022-12-15T03:45:03;-7.10;99.90
37432;DHT22;23292;51.300;6.252;2022-12-15T03:47:29;-7.00;99.90
37432;DHT22;23292;51.300;6.252;2022-12-15T03:49:57;-7.00;99.90
37432;DHT22;23292;51.300;6.252;2022-12-15T03:52:24;-6.90;99.90
37432;DHT22;23292;51.300;6.252;2022-12-15T03:54:50;-6.90;99.90
37432;DHT22;23292;51.300;6.252;2022-12-15T03:57:17;-6.90;99.90
37432;DHT22;23292;51.300;6.252;2022-12-15T03:59:44;-6.90;99.90
37432;DHT22;23292;51.300;6.252;2022-12-15T04:02:10;-6.90;99.90
37432;DHT22;23292;51.300;6.252;2022-12-15T04:04:37;-6.90;99.90
37432;DHT22;23292;51.300;6.252;2022-12-15T04:07:04;-6.90;99.90
37432;DHT22;23292;51.300;6.252;2022-12-15T04:09:31;-6.80;99.90
37432;DHT22;23292;51.300;6.252;2022-12-15T04:11:57;-6.80;99.90
37432;DHT22;23292;51.300;6.252;2022-12-15T04:14:24;-6.70;99.90
37432;DHT22;23292;51.300;6.252;2022-12-15T04:16:51;-6.80;99.90
37432;DHT22;23292;51.300;6.252;2022-12-15T04:19:17;-6.80;99.90
37432;DHT22;23292;51.300;6.252;2022-12-15T04:22:03;-6.80;99.90
37432;DHT22;23292;51.300;6.252;2022-12-15T04:24:29;-6.80;99.90
37432;DHT22;23292;51.300;6.252;2022-12-15T04:27:15;-6.80;99.90
37432;DHT22;23292;51.300;6.252;2022-12-15T04:30:01;-6.80;99.90
37432;DHT22;23292;51.300;6.252;2022-12-15T04:32:46;-6.80;99.90
37432;DHT22;23292;51.300;6.252;2022-12-15T04:35:32;-6.80;99.90
37432;DHT22;23292;51.300;6.252;2022-12-15T04:38:20;-6.90;99.90
37432;DHT22;23292;51.300;6.252;2022-12-15T04:41:16;-6.90;99.90
37432;DHT22;23292;51.300;6.252;2022-12-15T04:44:03;-7.00;99.90
37432;DHT22;23292;51.300;6.252;2022-12-15T04:46:49;-7.10;99.90
37432;DHT22;23292;51.300;6.252;2022-12-15T04:49:34;-7.10;99.90
37432;DHT22;23292;51.300;6.252;2022-12-15T04:52:19;-7.00;99.90
37432;DHT22;23292;51.300;6.252;2022-12-15T04:55:05;-7.00;99.90
37432;DHT22;23292;51.300;6.252;2022-12-15T05:01:58;-6.90;99.90
37432;DHT22;23292;51.300;6.252;2022-12-15T05:04:43;-6.90;99.90
37432;DHT22;23292;51.300;6.252;2022-12-15T05:07:29;-6.90;99.90
37432;DHT22;23292;51.300;6.252;2022-12-15T05:10:14;-7.00;99.90
37432;DHT22;23292;51.300;6.252;2022-12-15T05:13:04;-7.00;99.90
37432;DHT22;23292;51.300;6.252;2022-12-15T05:15:49;-7.00;99.90
37432;DHT22;23292;51.300;6.252;2022-12-15T05:18:34;-7.00;99.90
37432;DHT22;23292;51.300;6.252;2022-12-15T05:21:20;-7.00;99.90
37432;DHT22;23292;51.300;6.252;2022-12-15T05:24:05;-6.90;99.90
37432;DHT22;23292;51.300;6.252;2022-12-15T05:26:50;-7.00;99.90
37432;DHT22;23292;51.300;6.252;2022-12-15T05:29:35;-7.00;99.90
37432;DHT22;23292;51.300;6.252;2022-12-15T05:32:21;-7.10;99.90
37432;DHT22;23292;51.300;6.252;2022-12-15T05:34:47;-7.10;99.90
37432;DHT22;23292;51.300;6.252;2022-12-15T05:37:14;-7.10;99.90
37432;DHT22;23292;51.300;6.252;2022-12-15T05:39:40;-7.10;99.90
37432;DHT22;23292;51.300;6.252;2022-12-15T05:42:07;-7.00;99.90
37432;DHT22;23292;51.300;6.252;2022-12-15T05:44:34;-7.00;99.90
37432;DHT22;23292;51.300;6.252;2022-12-15T05:47:01;-6.90;99.90
37432;DHT22;23292;51.300;6.252;2022-12-15T05:49:27;-6.90;99.90
37432;DHT22;23292;51.300;6.252;2022-12-15T05:51:54;-6.90;99.90
37432;DHT22;23292;51.300;6.252;2022-12-15T05:54:22;-6.90;99.90
37432;DHT22;23292;51.300;6.252;2022-12-15T05:56:49;-6.90;99.90
37432;DHT22;23292;51.300;6.252;2022-12-15T05:59:17;-6.80;99.90
37432;DHT22;23292;51.300;6.252;2022-12-15T06:01:44;-6.80;99.90
37432;DHT22;23292;51.300;6.252;2022-12-15T06:04:11;-6.70;99.90
37432;DHT22;23292;51.300;6.252;2022-12-15T06:06:39;-6.60;99.90
37432;DHT22;23292;51.300;6.252;2022-12-15T06:09:05;-6.60;99.90
37432;DHT22;23292;51.300;6.252;2022-12-15T06:11:32;-6.60;99.90
37432;DHT22;23292;51.300;6.252;2022-12-15T06:13:59;-6.60;99.90
37432;DHT22;23292;51.300;6.252;2022-12-15T06:16:26;-6.60;99.90
37432;DHT22;23292;51.300;6.252;2022-12-15T06:18:59;-6.70;99.90
37432;DHT22;23292;51.300;6.252;2022-12-15T06:21:29;-6.70;99.90
37432;DHT22;23292;51.300;6.252;2022-12-15T06:23:56;-6.70;99.90
37432;DHT22;23292;51.300;6.252;2022-12-15T06:28:56;-6.80;99.90
37432;DHT22;23292;51.300;6.252;2022-12-15T06:31:24;-6.90;99.90
37432;DHT22;23292;51.300;6.252;2022-12-15T06:33:52;-6.90;99.90
37432;DHT22;23292;51.300;6.252;2022-12-15T06:36:26;-6.90;99.90
37432;DHT22;23292;51.300;6.252;2022-12-15T06:38:56;-6.80;99.90
37432;DHT22;23292;51.300;6.252;2022-12-15T06:41:23;-6.90;99.90
37432;DHT22;23292;51.300;6.252;2022-12-15T06:43:52;-7.00;99.90
37432;DHT22;23292;51.300;6.252;2022-12-15T06:46:19;-7.00;99.90
37432;DHT22;23292;51.300;6.252;2022-12-15T06:48:46;-6.90;99.90
37432;DHT22;23292;51.300;6.252;2022-12-15T06:51:14;-6.90;99.90
37432;DHT22;23292;51.300;6.252;2022-12-15T06:53:43;-7.00;99.90
37432;DHT22;23292;51.300;6.252;2022-12-15T06:56:22;-7.10;99.90
37432;DHT22;23292;51.300;6.252;2022-12-15T06:58:58;-7.00;99.90
37432;DHT22;23292;51.300;6.252;2022-12-15T07:01:25;-7.00;99.90
37432;DHT22;23292;51.300;6.252;2022-12-15T07:03:52;-6.90;99.90
37432;DHT22;23292;51.300;6.252;2022-12-15T07:06:20;-7.00;99.90
37432;DHT22;23292;51.300;6.252;2022-12-15T07:08:51;-7.10;99.90
37432;DHT22;23292;51.300;6.252;2022-12-15T07:11:19;-7.00;99.90
37432;DHT22;23292;51.300;6.252;2022-12-15T07:13:53;-7.00;99.90
37432;DHT22;23292;51.300;6.252;2022-12-15T07:16:21;-7.00;99.90
37432;DHT22;23292;51.300;6.252;2022-12-15T07:18:49;-7.00;99.90
37432;DHT22;23292;51.300;6.252;2022-12-15T07:21:16;-7.10;99.90
37432;DHT22;23292;51.300;6.252;2022-12-15T07:23:43;-7.00;99.90
37432;DHT22;23292;51.300;6.252;2022-12-15T07:26:27;-7.00;99.90
37432;DHT22;23292;51.300;6.252;2022-12-15T07:28:54;-6.90;99.90
37432;DHT22;23292;51.300;6.252;2022-12-15T07:31:21;-7.00;99.90
37432;DHT22;23292;51.300;6.252;2022-12-15T07:33:48;-6.90;99.90
37432;DHT22;23292;51.300;6.252;2022-12-15T07:36:17;-6.90;99.90
37432;DHT22;23292;51.300;6.252;2022-12-15T07:38:44;-6.80;99.90
37432;DHT22;23292;51.300;6.252;2022-12-15T07:41:15;-6.80;99.90
37432;DHT22;23292;51.300;6.252;2022-12-15T07:43:42;-6.80;99.90
37432;DHT22;23292;51.300;6.252;2022-12-15T07:46:10;-6.80;99.90
37432;DHT22;23292;51.300;6.252;2022-12-15T07:48:37;-6.80;99.90
37432;DHT22;23292;51.300;6.252;2022-12-15T07:51:07;-6.80;99.90
37432;DHT22;23292;51.300;6.252;2022-12-15T07:53:43;-6.80;99.90
37432;DHT22;23292;51.300;6.252;2022-12-15T07:56:09;-6.70;99.90
37432;DHT22;23292;51.300;6.252;2022-12-15T07:58:36;-6.60;99.90
37432;DHT22;23292;51.300;6.252;2022-12-15T08:01:05;-6.50;99.90
37432;DHT22;23292;51.300;6.252;2022-12-15T08:03:33;-6.50;99.90
37432;DHT22;23292;51.300;6.252;2022-12-15T08:06:10;-6.50;99.90
37432;DHT22;23292;51.300;6.252;2022-12-15T08:08:38;-6.40;99.90
37432;DHT22;23292;51.300;6.252;2022-12-15T08:11:08;-6.40;99.90
37432;DHT22;23292;51.300;6.252;2022-12-15T08:13:37;-6.50;99.90
37432;DHT22;23292;51.300;6.252;2022-12-15T08:16:23;-6.40;99.90
37432;DHT22;23292;51.300;6.252;2022-12-15T08:18:50;-6.30;99.90
37432;DHT22;23292;51.300;6.252;2022-12-15T08:21:17;-6.20;99.90
37432;DHT22;23292;51.300;6.252;2022-12-15T08:23:44;-6.20;99.90
37432;DHT22;23292;51.300;6.252;2022-12-15T08:26:13;-6.20;99.90
37432;DHT22;23292;51.300;6.252;2022-12-15T08:28:41;-6.10;99.90
37432;DHT22;23292;51.300;6.252;2022-12-15T08:31:19;-6.00;99.90
37432;DHT22;23292;51.300;6.252;2022-12-15T08:33:47;-5.90;99.90
37432;DHT22;23292;51.300;6.252;2022-12-15T08:36:16;-5.80;99.90
37432;DHT22;23292;51.300;6.252;2022-12-15T08:38:44;-5.70;99.90
37432;DHT22;23292;51.300;6.252;2022-12-15T08:41:21;-5.60;99.90
37432;DHT22;23292;51.300;6.252;2022-12-15T08:43:49;-5.50;99.90
37432;DHT22;23292;51.300;6.252;2022-12-15T08:46:18;-5.40;99.90
37432;DHT22;23292;51.300;6.252;2022-12-15T08:48:45;-5.30;99.90
37432;DHT22;23292;51.300;6.252;2022-12-15T08:51:13;-5.30;99.90
37432;DHT22;23292;51.300;6.252;2022-12-15T08:53:39;-5.10;99.90
37432;DHT22;23292;51.300;6.252;2022-12-15T08:56:14;-5.10;99.90
37432;DHT22;23292;51.300;6.252;2022-12-15T08:58:44;-4.90;99.90
37432;DHT22;23292;51.300;6.252;2022-12-15T09:01:14;-4.80;99.90
37432;DHT22;23292;51.300;6.252;2022-12-15T09:03:50;-4.70;99.90
37432;DHT22;23292;51.300;6.252;2022-12-15T09:06:19;-4.60;99.90
37432;DHT22;23292;51.300;6.252;2022-12-15T09:08:46;-4.50;99.90
37432;DHT22;23292;51.300;6.252;2022-12-15T09:11:16;-4.40;99.90
37432;DHT22;23292;51.300;6.252;2022-12-15T09:13:43;-4.40;99.90
37432;DHT22;23292;51.300;6.252;2022-12-15T09:16:13;-4.30;99.90
37432;DHT22;23292;51.300;6.252;2022-12-15T09:18:42;-4.20;99.90
37432;DHT22;23292;51.300;6.252;2022-12-15T09:21:10;-4.10;99.90
37432;DHT22;23292;51.300;6.252;2022-12-15T09:23:37;-3.90;99.90
37432;DHT22;23292;51.300;6.252;2022-12-15T09:26:10;-3.80;99.90
37432;DHT22;23292;51.300;6.252;2022-12-15T09:28:37;-3.70;99.90
37432;DHT22;23292;51.300;6.252;2022-12-15T09:31:10;-3.60;99.90
37432;DHT22;23292;51.300;6.252;2022-12-15T09:33:37;-3.50;99.90
37432;DHT22;23292;51.300;6.252;2022-12-15T09:36:05;-3.40;99.90
37432;DHT22;23292;51.300;6.252;2022-12-15T09:38:34;-3.40;99.90
37432;DHT22;23292;51.300;6.252;2022-12-15T09:44:10;-3.20;99.90
37432;DHT22;23292;51.300;6.252;2022-12-15T09:46:49;-3.10;99.90
37432;DHT22;23292;51.300;6.252;2022-12-15T09:52:01;-2.90;99.90
37432;DHT22;23292;51.300;6.252;2022-12-15T09:54:36;-2.90;99.90
37432;DHT22;23292;51.300;6.252;2022-12-15T09:57:11;-2.70;99.90
37432;DHT22;23292;51.300;6.252;2022-12-15T10:03:16;-2.60;99.90
37432;DHT22;23292;51.300;6.252;2022-12-15T10:08:57;-2.50;99.90
37432;DHT22;23292;51.300;6.252;2022-12-15T10:11:58;-2.40;99.90
37432;DHT22;23292;51.300;6.252;2022-12-15T10:14:34;-2.30;99.90
37432;DHT22;23292;51.300;6.252;2022-12-15T10:17:23;-2.30;99.90
37432;DHT22;23292;51.300;6.252;2022-12-15T10:22:35;-2.00;99.90
37432;DHT22;23292;51.300;6.252;2022-12-15T10:25:22;-1.90;99.90
37432;DHT22;23292;51.300;6.252;2022-12-15T10:30:59;-1.60;99.90
37432;DHT22;23292;51.300;6.252;2022-12-15T10:33:35;-1.50;99.90
37432;DHT22;23292;51.300;6.252;2022-12-15T10:36:12;-1.50;99.90
37432;DHT22;23292;51.300;6.252;2022-12-15T10:38:43;-1.40;99.90
37432;DHT22;23292;51.300;6.252;2022-12-15T10:41:13;-1.30;99.90
37432;DHT22;23292;51.300;6.252;2022-12-15T10:43:42;-1.30;99.90
37432;DHT22;23292;51.300;6.252;2022-12-15T10:46:21;-1.20;99.90
37432;DHT22;23292;51.300;6.252;2022-12-15T10:48:50;-1.10;99.90
37432;DHT22;23292;51.300;6.252;2022-12-15T10:51:30;-1.00;99.90
37432;DHT22;23292;51.300;6.252;2022-12-15T10:56:29;-0.90;99.90
37432;DHT22;23292;51.300;6.252;2022-12-15T10:59:22;-0.80;99.90
37432;DHT22;23292;51.300;6.252;2022-12-15T11:01:49;-0.90;99.90
37432;DHT22;23292;51.300;6.252;2022-12-15T11:04:28;-1.00;99.90
37432;DHT22;23292;51.300;6.252;2022-12-15T11:07:00;-0.90;99.90
37432;DHT22;23292;51.300;6.252;2022-12-15T11:09:33;-0.70;99.90
37432;DHT22;23292;51.300;6.252;2022-12-15T11:12:00;-0.70;99.90
37432;DHT22;23292;51.300;6.252;2022-12-15T11:14:50;-0.70;99.90
37432;DHT22;23292;51.300;6.252;2022-12-15T11:17:21;-0.60;99.90
37432;DHT22;23292;51.300;6.252;2022-12-15T11:19:53;-0.70;99.90
37432;DHT22;23292;51.300;6.252;2022-12-15T11:22:38;-0.60;99.90
37432;DHT22;23292;51.300;6.252;2022-12-15T11:27:55;-0.50;99.90
37432;DHT22;23292;51.300;6.252;2022-12-15T11:30:32;-0.50;99.90
37432;DHT22;23292;51.300;6.252;2022-12-15T11:33:01;-0.50;99.90
37432;DHT22;23292;51.300;6.252;2022-12-15T11:36:07;-0.50;99.90
37432;DHT22;23292;51.300;6.252;2022-12-15T11:50:46;-0.30;99.90
37432;DHT22;23292;51.300;6.252;2022-12-15T11:53:45;-0.30;99.90
37432;DHT22;23292;51.300;6.252;2022-12-15T11:56:41;-0.30;99.90
37432;DHT22;23292;51.300;6.252;2022-12-15T12:05:40;-0.30;99.90
37432;DHT22;23292;51.300;6.252;2022-12-15T12:11:14;-0.30;99.90
37432;DHT22;23292;51.300;6.252;2022-12-15T12:16:43;-0.30;99.90
37432;DHT22;23292;51.300;6.252;2022-12-15T12:22:08;-0.20;99.90
37432;DHT22;23292;51.300;6.252;2022-12-15T12:24:50;-0.20;99.90
37432;DHT22;23292;51.300;6.252;2022-12-15T12:27:34;-0.20;99.90
37432;DHT22;23292;51.300;6.252;2022-12-15T12:30:16;-0.10;99.90
37432;DHT22;23292;51.300;6.252;2022-12-15T12:32:58;-0.20;99.90
37432;DHT22;23292;51.300;6.252;2022-12-15T12:35:51;-0.20;99.90
37432;DHT22;23292;51.300;6.252;2022-12-15T12:38:34;-0.20;99.90
37432;DHT22;23292;51.300;6.252;2022-12-15T12:46:12;-0.30;99.90
37432;DHT22;23292;51.300;6.252;2022-12-15T12:48:57;-0.20;99.90
37432;DHT22;23292;51.300;6.252;2022-12-15T12:51:29;-0.30;99.90
37432;DHT22;23292;51.300;6.252;2022-12-15T12:53:57;-0.30;99.90
37432;DHT22;23292;51.300;6.252;2022-12-15T12:56:44;-0.30;99.90
37432;DHT22;23292;51.300;6.252;2022-12-15T13:07:31;-0.10;99.90
37432;DHT22;23292;51.300;6.252;2022-12-15T13:10:15;-0.20;99.90
37432;DHT22;23292;51.300;6.252;2022-12-15T13:15:30;-0.20;99.90
37432;DHT22;23292;51.300;6.252;2022-12-15T13:18:14;-0.20;99.90
37432;DHT22;23292;51.300;6.252;2022-12-15T13:20:44;-0.30;99.90
37432;DHT22;23292;51.300;6.252;2022-12-15T13:41:52;-0.30;99.90
37432;DHT22;23292;51.300;6.252;2022-12-15T13:44:56;-0.20;99.90
37432;DHT22;23292;51.300;6.252;2022-12-15T13:47:29;-0.20;99.90
37432;DHT22;23292;51.300;6.252;2022-12-15T13:50:12;-0.20;99.90
37432;DHT22;23292;51.300;6.252;2022-12-15T13:52:51;-0.20;99.90
37432;DHT22;23292;51.300;6.252;2022-12-15T13:58:26;-0.30;99.90
37432;DHT22;23292;51.300;6.252;2022-12-15T14:00:57;-0.30;99.90
37432;DHT22;23292;51.300;6.252;2022-12-15T14:03:24;-0.40;99.90
37432;DHT22;23292;51.300;6.252;2022-12-15T14:05:56;-0.40;99.90
37432;DHT22;23292;51.300;6.252;2022-12-15T14:08:26;-0.50;99.90
37432;DHT22;23292;51.300;6.252;2022-12-15T14:10:56;-0.50;99.90
37432;DHT22;23292;51.300;6.252;2022-12-15T14:13:33;-0.50;99.90
37432;DHT22;23292;51.300;6.252;2022-12-15T14:16:22;-0.60;99.90
37432;DHT22;23292;51.300;6.252;2022-12-15T14:19:13;-0.60;99.90
37432;DHT22;23292;51.300;6.252;2022-12-15T14:21:48;-0.70;99.90
37432;DHT22;23292;51.300;6.252;2022-12-15T14:24:25;-0.80;99.90
37432;DHT22;23292;51.300;6.252;2022-12-15T14:27:08;-0.70;99.90
37432;DHT22;23292;51.300;6.252;2022-12-15T14:29:35;-0.80;99.90
37432;DHT22;23292;51.300;6.252;2022-12-15T14:32:02;-0.90;99.90
37432;DHT22;23292;51.300;6.252;2022-12-15T14:34:34;-1.00;99.90
37432;DHT22;23292;51.300;6.252;2022-12-15T14:37:02;-0.90;99.90
37432;DHT22;23292;51.300;6.252;2022-12-15T14:39:40;-0.90;99.90
37432;DHT22;23292;51.300;6.252;2022-12-15T14:42:17;-1.00;99.90
37432;DHT22;23292;51.300;6.252;2022-12-15T14:44:45;-0.70;99.90
37432;DHT22;23292;51.300;6.252;2022-12-15T14:47:33;-0.50;99.90
37432;DHT22;23292;51.300;6.252;2022-12-15T14:50:02;-0.60;99.90
37432;DHT22;23292;51.300;6.252;2022-12-15T14:52:32;-0.70;99.90
37432;DHT22;23292;51.300;6.252;2022-12-15T14:57:46;-1.00;99.90
37432;DHT22;23292;51.300;6.252;2022-12-15T15:05:50;-1.00;99.90
37432;DHT22;23292;51.300;6.252;2022-12-15T15:08:25;-1.00;99.90
37432;DHT22;23292;51.300;6.252;2022-12-15T15:10:57;-1.10;99.90
37432;DHT22;23292;51.300;6.252;2022-12-15T15:13:29;-1.10;99.90
37432;DHT22;23292;51.300;6.252;2022-12-15T15:16:07;-1.20;99.90
37432;DHT22;23292;51.300;6.252;2022-12-15T15:18:39;-1.20;99.90
37432;DHT22;23292;51.300;6.252;2022-12-15T15:21:14;-1.20;99.90
37432;DHT22;23292;51.300;6.252;2022-12-15T15:24:41;-1.10;99.90
37432;DHT22;23292;51.300;6.252;2022-12-15T15:26:43;-1.00;99.90
37432;DHT22;23292;51.300;6.252;2022-12-15T15:34:38;-1.50;99.90
37432;DHT22;23292;51.300;6.252;2022-12-15T15:37:17;-1.80;99.90
37432;DHT22;23292;51.300;6.252;2022-12-15T15:39:48;-1.90;99.90
37432;DHT22;23292;51.300;6.252;2022-12-15T15:42:15;-2.20;99.90
37432;DHT22;23292;51.300;6.252;2022-12-15T15:44:42;-2.20;99.90
37432;DHT22;23292;51.300;6.252;2022-12-15T15:47:23;-2.30;99.90
37432;DHT22;23292;51.300;6.252;2022-12-15T15:49:51;-2.20;99.90
37432;DHT22;23292;51.300;6.252;2022-12-15T15:52:18;-2.20;99.90
37432;DHT22;23292;51.300;6.252;2022-12-15T15:54:45;-2.10;99.90
37432;DHT22;23292;51.300;6.252;2022-12-15T15:57:13;-2.10;99.90
37432;DHT22;23292;51.300;6.252;2022-12-15T15:59:41;-2.20;99.90
37432;DHT22;23292;51.300;6.252;2022-12-15T16:02:11;-2.30;99.90
37432;DHT22;23292;51.300;6.252;2022-12-15T16:04:40;-2.20;99.90
37432;DHT22;23292;51.300;6.252;2022-12-15T16:07:26;-2.30;99.90
37432;DHT22;23292;51.300;6.252;2022-12-15T16:09:53;-2.40;99.90
37432;DHT22;23292;51.300;6.252;2022-12-15T16:12:34;-2.30;99.90
37432;DHT22;23292;51.300;6.252;2022-12-15T16:15:13;-2.40;99.90
37432;DHT22;23292;51.300;6.252;2022-12-15T16:17:41;-2.40;99.90
37432;DHT22;23292;51.300;6.252;2022-12-15T16:20:10;-2.50;99.90
37432;DHT22;23292;51.300;6.252;2022-12-15T16:22:38;-2.50;99.90
37432;DHT22;23292;51.300;6.252;2022-12-15T16:25:12;-2.60;99.90
37432;DHT22;23292;51.300;6.252;2022-12-15T16:27:40;-2.60;99.90
37432;DHT22;23292;51.300;6.252;2022-12-15T16:30:21;-2.60;99.90
37432;DHT22;23292;51.300;6.252;2022-12-15T16:32:49;-2.60;99.90
37432;DHT22;23292;51.300;6.252;2022-12-15T16:35:16;-2.70;99.90
37432;DHT22;23292;51.300;6.252;2022-12-15T16:37:44;-2.70;99.90
37432;DHT22;23292;51.300;6.252;2022-12-15T16:40:19;-2.70;99.90
37432;DHT22;23292;51.300;6.252;2022-12-15T16:42:51;-2.80;99.90
37432;DHT22;23292;51.300;6.252;2022-12-15T16:45:21;-2.80;99.90
37432;DHT22;23292;51.300;6.252;2022-12-15T16:47:48;-2.80;99.90
37432;DHT22;23292;51.300;6.252;2022-12-15T16:50:19;-2.80;99.90
37432;DHT22;23292;51.300;6.252;2022-12-15T16:52:48;-2.90;99.90
37432;DHT22;23292;51.300;6.252;2022-12-15T16:55:26;-2.90;99.90
37432;DHT22;23292;51.300;6.252;2022-12-15T16:57:57;-3.00;99.90
37432;DHT22;23292;51.300;6.252;2022-12-15T17:00:33;-3.10;99.90
37432;DHT22;23292;51.300;6.252;2022-12-15T17:03:01;-3.20;99.90
37432;DHT22;23292;51.300;6.252;2022-12-15T17:05:33;-3.10;99.90
37432;DHT22;23292;51.300;6.252;2022-12-15T17:08:03;-3.00;99.90
37432;DHT22;23292;51.300;6.252;2022-12-15T17:10:31;-3.00;99.90
37432;DHT22;23292;51.300;6.252;2022-12-15T17:15:29;-3.00;99.90
37432;DHT22;23292;51.300;6.252;2022-12-15T17:17:55;-3.00;99.90
37432;DHT22;23292;51.300;6.252;2022-12-15T17:20:25;-3.10;99.90
37432;DHT22;23292;51.300;6.252;2022-12-15T17:23:05;-3.20;99.90
37432;DHT22;23292;51.300;6.252;2022-12-15T17:25:38;-3.20;99.90
37432;DHT22;23292;51.300;6.252;2022-12-15T17:28:28;-3.40;99.90
37432;DHT22;23292;51.300;6.252;2022-12-15T17:30:55;-3.50;99.90
37432;DHT22;23292;51.300;6.252;2022-12-15T17:33:27;-3.60;99.90
37432;DHT22;23292;51.300;6.252;2022-12-15T17:35:59;-3.60;99.90
37432;DHT22;23292;51.300;6.252;2022-12-15T17:38:26;-3.70;99.90
37432;DHT22;23292;51.300;6.252;2022-12-15T17:40:54;-3.70;99.90
37432;DHT22;23292;51.300;6.252;2022-12-15T17:43:23;-3.70;99.90
37432;DHT22;23292;51.300;6.252;2022-12-15T17:45:57;-3.70;99.90
37432;DHT22;23292;51.300;6.252;2022-12-15T17:48:24;-3.70;99.90
37432;DHT22;23292;51.300;6.252;2022-12-15T17:50:52;-3.70;99.90
37432;DHT22;23292;51.300;6.252;2022-12-15T17:53:20;-3.70;99.90
37432;DHT22;23292;51.300;6.252;2022-12-15T17:55:48;-3.70;99.90
37432;DHT22;23292;51.300;6.252;2022-12-15T17:58:18;-3.70;99.90
37432;DHT22;23292;51.300;6.252;2022-12-15T18:00:47;-3.60;99.90
37432;DHT22;23292;51.300;6.252;2022-12-15T18:03:16;-3.70;99.90
37432;DHT22;23292;51.300;6.252;2022-12-15T18:05:44;-3.70;99.90
37432;DHT22;23292;51.300;6.252;2022-12-15T18:08:23;-3.60;99.90
37432;DHT22;23292;51.300;6.252;2022-12-15T18:10:55;-3.60;99.90
37432;DHT22;23292;51.300;6.252;2022-12-15T18:13:28;-3.60;99.90
37432;DHT22;23292;51.300;6.252;2022-12-15T18:16:00;-3.60;99.90
37432;DHT22;23292;51.300;6.252;2022-12-15T18:18:27;-3.70;99.90
37432;DHT22;23292;51.300;6.252;2022-12-15T18:20:58;-3.80;99.90
37432;DHT22;23292;51.300;6.252;2022-12-15T18:23:27;-3.80;99.90
37432;DHT22;23292;51.300;6.252;2022-12-15T18:25:58;-3.90;99.90